Seattle, Washington
Traffic Map
Current Weather Conditions
Seattle, Washington
Overcast Light Rain
Overcast
11°
Feels Like: 11°
Wind Chill: 11° Ceiling: 3400
Heat Index: 11° Visibility: 6mi
Dew Point: Wind: 17mph
Humidity: 80% Direction: 180° (S)
Pressure: 30.08in Gusts: 26mph
Raw Report DataKBFI 231553Z 18015G23KT 6SM -RA FEW024 BKN034 OVC049 11/07 A3008 RMK AO2 SLP186 P0027 T01060072
Traffic Incident Summary
Active as of:
Severity:
Category:
InformationThere was an issue retrieving the traffic information for this location. Please try a different location or try again shortly.
Advertisements
Track Severe Weather on mobile